Four Corners Regional Airport Farmington US
ICAO: KFMN
IATA: FMN
Category: Medium
Scheduled Services: No

Elevation: 5506 ft
TransAlt. 18000 ft.

Airport Communications:
ATIS:127.15
DENVER CNTR:118.575
CTAF:118.9
GND:121.7
ALBUQUERQUE RDO:122.4
FARMINGTON TWR:118.9
UNICOM:122.95

KFMN Zoom In..

If you have problems with the map follow the link
https://www.worldairports.se/pages/airport.php?
ICAO=KFMN

Runways:

(A) RW 05 length 6500 ft width 150 ft
---- / hdg 53

(B) RW 07 length 6704 ft width 100 ft
---- / hdg 76

(C) RW 23 length 6500 ft width 150 ft
---- / hdg 233

(D) RW 25 length 6704 ft width 100 ft
ILS 111.90 / hdg 256

Location; KFMN
Day. 08 / Time. 18.53 Zulu
* Altimeter: 29.97
* Temperature: 07° c. 44.6°f.
* Wind from: 340° Speed 03 kn.
Dewpoint: 04° c.
Visibility: 10 Statute Miles.
Clouds: Few 4700 ft.
Clouds: Few 5500 ft.
Clouds: Broken 1000 ft.

KFMN 081853Z 34003KT 10SM FEW047 FEW055 BKN100 07/04 A2997 RMK AO2 SLP142 T00720044


Wind From 340°
Speed 03 kn.

 
 
jpsmedia worldairports.se 2019   terms of use